KNKT

Cherry Point MCAS / Cunningham Field / Airport

Cherry Point, North Carolina, USA
METAR KNKT 181454Z 29010KT 7SM SKC M02/M09 A3027 RMK SLP246 T10171089 53015
Observed Flight Rules
Jan-18 @ 14:54 UTC (25 minutes ago) Visual Flight Rules
Wind Visibility Clouds
290° at 10 knots 7 miles
  • Clear skies
Temperatures Readings
Current -2°C / 28°F
Dewpoint -9°C / 16°F
Humidity 59%
Altimeter 30.27" Hg
Pressure 1024.6 hPa
Elevation 9
METAR KNKT 181454Z 29010KT 7SM SKC M02/M09 A3027 RMK SLP246 T10171089 53015
Observed Flight Rules
Jan-18 @ 14:54 UTC
(25 minutes ago)
VFR
Wind Visibility
290° at 10 knots 7 miles
Clouds
  • Clear skies
Temperature Dewpoint
-2°C / 28°F -9°C / 16°F
Humidity Altimeter Pressure
59% 30.27" Hg 1024.6 hPa